Time;durP1;ratioP1;P1;durP2;ratioP2;P2;SDS_P1;SDS_P2;PMS_P1;PMS_P2;Temp;Humidity;BMP_temperature;BMP_pressure;BME280_temperature;BME280_humidity;BME280_pressure;Samples;Min_cycle;Max_cycle;Signal;HPM_P1;HPM_P2
2024/02/26 00:01:58;;;;;;;8.07;4.25;;;3.30;99.90;;;;;;5080398;28;20058;-67
2024/02/26 00:04:24;;;;;;;7.00;3.85;;;3.30;99.90;;;;;;5079566;28;20052;-66
2024/02/26 00:06:51;;;;;;;9.00;4.28;;;3.30;99.90;;;;;;5086171;28;20031;-66
2024/02/26 00:09:16;;;;;;;7.80;4.13;;;3.30;99.90;;;;;;5080792;28;20568;-68
2024/02/26 00:11:42;;;;;;;6.50;3.33;;;3.20;99.90;;;;;;5077548;28;20130;-69
2024/02/26 00:14:08;;;;;;;5.70;3.42;;;3.20;99.90;;;;;;5085792;28;20655;-67
2024/02/26 00:16:33;;;;;;;7.50;3.55;;;3.20;99.90;;;;;;5085791;28;20700;-68
2024/02/26 00:18:59;;;;;;;7.40;4.05;;;3.10;99.90;;;;;;5081963;28;20086;-67
2024/02/26 00:21:24;;;;;;;10.35;3.97;;;3.10;99.90;;;;;;5081330;28;20033;-67
2024/02/26 00:23:51;;;;;;;7.15;3.70;;;3.10;99.90;;;;;;5081761;28;20674;-68
2024/02/26 00:26:16;;;;;;;9.77;4.10;;;3.10;99.90;;;;;;5078832;28;20037;-67
2024/02/26 00:28:42;;;;;;;7.07;3.78;;;3.10;99.90;;;;;;5078452;28;20062;-67
2024/02/26 00:31:07;;;;;;;8.23;3.92;;;3.00;99.90;;;;;;5071796;28;20067;-67
2024/02/26 00:33:33;;;;;;;7.78;3.58;;;3.00;99.90;;;;;;5079161;28;20040;-68
2024/02/26 00:35:58;;;;;;;6.57;3.25;;;3.00;99.90;;;;;;5081852;28;20157;-69
2024/02/26 00:38:24;;;;;;;4.88;2.95;;;3.00;99.90;;;;;;5079229;28;20037;-66
2024/02/26 00:40:50;;;;;;;5.22;3.33;;;3.00;99.90;;;;;;5085658;28;20085;-68
2024/02/26 00:43:15;;;;;;;5.10;3.28;;;3.00;99.90;;;;;;5072379;28;20040;-66
2024/02/26 00:45:41;;;;;;;13.02;3.60;;;3.00;99.90;;;;;;5078969;28;20028;-69
2024/02/26 00:48:07;;;;;;;6.35;3.47;;;3.00;99.90;;;;;;5080134;28;20508;-65
2024/02/26 00:50:33;;;;;;;7.57;3.72;;;3.00;99.90;;;;;;5061417;28;20482;-72
2024/02/26 00:52:59;;;;;;;8.43;3.25;;;2.90;99.90;;;;;;5073801;28;20036;-67
2024/02/26 00:55:25;;;;;;;7.68;3.65;;;2.90;99.90;;;;;;5082866;28;20023;-68
2024/02/26 00:57:51;;;;;;;6.82;3.47;;;2.90;99.90;;;;;;5079356;28;20028;-69
2024/02/26 01:00:17;;;;;;;5.63;3.28;;;2.90;99.90;;;;;;5075137;28;20028;-72
2024/02/26 01:02:42;;;;;;;8.73;3.58;;;2.90;99.90;;;;;;5080422;28;20040;-67
2024/02/26 01:05:11;;;;;;;7.85;3.50;;;2.90;99.90;;;;;;5076490;28;20060;-65
2024/02/26 01:07:37;;;;;;;5.18;2.95;;;2.90;99.90;;;;;;5081513;28;20389;-66
2024/02/26 01:10:03;;;;;;;7.10;3.28;;;2.80;99.90;;;;;;5081010;28;20039;-67
2024/02/26 01:12:29;;;;;;;11.60;3.83;;;2.90;99.90;;;;;;5081538;28;20046;-65
2024/02/26 01:14:55;;;;;;;6.72;3.03;;;2.80;99.90;;;;;;5078619;28;20028;-67
2024/02/26 01:17:20;;;;;;;8.15;3.28;;;2.80;99.90;;;;;;5074331;28;20047;-67
2024/02/26 01:19:46;;;;;;;5.55;3.28;;;2.80;99.90;;;;;;5077866;28;20107;-68
2024/02/26 01:22:12;;;;;;;9.02;3.55;;;2.80;99.90;;;;;;5064374;28;20466;-67
2024/02/26 01:24:37;;;;;;;6.72;3.28;;;2.80;99.90;;;;;;5078789;28;20020;-67
2024/02/26 01:27:03;;;;;;;6.90;3.58;;;2.80;99.90;;;;;;5076525;28;20064;-70
2024/02/26 01:29:29;;;;;;;8.10;3.20;;;2.80;99.90;;;;;;5079457;28;20028;-67
2024/02/26 01:31:54;;;;;;;7.85;3.33;;;2.80;99.90;;;;;;5084384;28;20028;-66
2024/02/26 01:34:20;;;;;;;5.85;3.40;;;2.80;99.90;;;;;;5082892;28;20558;-68
2024/02/26 01:36:46;;;;;;;5.88;2.88;;;2.90;99.90;;;;;;5084674;28;20024;-68
2024/02/26 01:39:12;;;;;;;10.88;3.53;;;2.90;99.90;;;;;;5087918;28;20032;-67
2024/02/26 01:41:41;;;;;;;7.13;3.33;;;2.90;99.90;;;;;;5082498;28;20536;-67
2024/02/26 01:44:06;;;;;;;5.78;2.88;;;3.00;99.90;;;;;;5078460;28;20124;-68
2024/02/26 01:46:35;;;;;;;7.45;3.05;;;3.00;99.90;;;;;;5068543;28;20107;-65
2024/02/26 01:49:01;;;;;;;7.38;2.97;;;3.00;99.90;;;;;;5069109;28;20032;-69
2024/02/26 01:51:28;;;;;;;6.55;3.00;;;3.00;99.90;;;;;;5081118;28;20039;-69
2024/02/26 01:53:54;;;;;;;8.55;2.67;;;3.10;99.90;;;;;;5083869;28;20032;-68
2024/02/26 01:56:21;;;;;;;4.97;2.03;;;3.10;99.90;;;;;;5080392;28;20531;-67
2024/02/26 01:58:48;;;;;;;5.00;2.58;;;3.10;99.90;;;;;;5084581;28;20024;-68
2024/02/26 02:01:15;;;;;;;5.57;3.15;;;3.10;99.90;;;;;;5078579;28;20094;-70
2024/02/26 02:03:41;;;;;;;3.88;2.33;;;3.20;99.90;;;;;;5082614;28;20119;-68
2024/02/26 02:06:08;;;;;;;5.55;2.92;;;3.20;99.90;;;;;;5073108;28;20036;-68
2024/02/26 02:08:35;;;;;;;4.05;2.47;;;3.20;99.90;;;;;;5071890;28;20408;-68
2024/02/26 02:11:00;;;;;;;5.90;2.60;;;3.20;99.90;;;;;;5083242;28;20586;-67
2024/02/26 02:13:26;;;;;;;6.93;2.60;;;3.20;99.90;;;;;;5085681;28;20089;-67
2024/02/26 02:15:52;;;;;;;5.90;2.42;;;3.20;99.90;;;;;;5083088;28;20473;-68
2024/02/26 02:18:19;;;;;;;4.97;2.33;;;3.30;99.90;;;;;;5069665;28;20066;-67
2024/02/26 02:20:44;;;;;;;5.90;2.20;;;3.20;99.90;;;;;;5084337;28;20035;-66
2024/02/26 02:23:10;;;;;;;5.13;2.08;;;3.20;99.90;;;;;;5084253;28;20032;-65
2024/02/26 02:25:35;;;;;;;7.78;2.65;;;3.30;99.90;;;;;;5079912;28;20122;-69
2024/02/26 02:28:01;;;;;;;4.78;2.30;;;3.30;99.90;;;;;;5087809;28;20128;-66
2024/02/26 02:30:29;;;;;;;9.38;2.67;;;3.30;99.90;;;;;;5065368;28;20036;-66
2024/02/26 02:32:56;;;;;;;3.63;1.83;;;3.30;99.90;;;;;;5065893;28;20035;-66
2024/02/26 02:35:22;;;;;;;4.00;2.30;;;3.30;99.90;;;;;;5085418;28;20036;-67
2024/02/26 02:37:47;;;;;;;4.43;2.17;;;3.30;99.90;;;;;;5086556;28;20024;-70
2024/02/26 02:40:13;;;;;;;3.63;2.42;;;3.30;99.90;;;;;;5077564;28;20028;-70
2024/02/26 02:42:38;;;;;;;4.07;2.22;;;3.30;99.90;;;;;;5080861;28;20022;-65
2024/02/26 02:45:04;;;;;;;7.20;2.17;;;3.30;99.90;;;;;;5078515;28;20528;-73
2024/02/26 02:47:30;;;;;;;4.13;1.95;;;3.30;99.90;;;;;;5084115;28;20036;-67
2024/02/26 02:49:55;;;;;;;3.78;2.00;;;3.30;99.90;;;;;;5082075;28;20516;-67
2024/02/26 02:52:21;;;;;;;6.13;2.30;;;3.40;99.90;;;;;;5086192;28;20028;-67
2024/02/26 02:54:47;;;;;;;4.78;2.13;;;3.30;99.90;;;;;;5083508;28;20036;-68
2024/02/26 02:57:12;;;;;;;5.57;1.85;;;3.30;99.90;;;;;;5083606;28;20507;-68
2024/02/26 02:59:39;;;;;;;4.80;2.15;;;3.30;99.90;;;;;;5076775;28;20029;-69
2024/02/26 03:02:04;;;;;;;5.30;1.77;;;3.20;99.90;;;;;;5081541;28;20058;-66
2024/02/26 03:04:30;;;;;;;3.38;1.90;;;3.20;99.90;;;;;;5079126;28;20127;-67
2024/02/26 03:06:56;;;;;;;4.60;2.17;;;3.20;99.90;;;;;;5079180;28;20020;-67
2024/02/26 03:09:21;;;;;;;3.00;2.00;;;3.20;99.90;;;;;;5076143;28;20032;-67
2024/02/26 03:11:47;;;;;;;5.60;2.28;;;3.20;99.90;;;;;;5079623;28;20023;-67
2024/02/26 03:14:12;;;;;;;3.63;2.05;;;3.20;99.90;;;;;;5069515;28;20127;-67
2024/02/26 03:16:38;;;;;;;4.72;2.15;;;3.20;99.90;;;;;;5081850;28;20056;-66
2024/02/26 03:19:04;;;;;;;4.93;1.80;;;3.30;99.90;;;;;;5080382;28;20067;-68
2024/02/26 03:21:29;;;;;;;4.28;2.50;;;3.30;99.90;;;;;;5079116;28;20037;-64
2024/02/26 03:23:55;;;;;;;5.38;2.03;;;3.20;99.90;;;;;;5077318;28;20051;-66
2024/02/26 03:26:21;;;;;;;6.82;2.17;;;3.30;99.90;;;;;;5083133;28;20043;-65
2024/02/26 03:28:47;;;;;;;4.15;2.08;;;3.30;99.90;;;;;;5066956;28;20036;-65
2024/02/26 03:31:13;;;;;;;5.60;2.10;;;3.30;99.90;;;;;;5074472;28;20040;-69
2024/02/26 03:33:38;;;;;;;6.10;1.75;;;3.30;99.90;;;;;;5065917;28;20078;-68
2024/02/26 03:36:04;;;;;;;3.95;1.98;;;3.30;99.90;;;;;;5075268;28;20036;-67
2024/02/26 03:38:30;;;;;;;3.97;1.95;;;3.20;99.90;;;;;;5082358;28;20544;-65
2024/02/26 03:40:56;;;;;;;3.17;1.85;;;3.20;99.90;;;;;;5081483;28;20032;-67
2024/02/26 03:43:21;;;;;;;4.50;1.80;;;3.40;99.90;;;;;;5080831;28;20040;-66
2024/02/26 03:45:47;;;;;;;3.75;1.65;;;3.20;99.90;;;;;;5082719;28;20431;-67
2024/02/26 03:48:13;;;;;;;2.83;1.45;;;3.20;99.90;;;;;;5072970;28;20040;-65
2024/02/26 03:50:38;;;;;;;2.50;1.60;;;3.20;99.90;;;;;;5079313;28;20029;-66
2024/02/26 03:53:04;;;;;;;3.40;2.10;;;3.20;99.90;;;;;;5080960;28;20039;-66
2024/02/26 03:55:30;;;;;;;3.95;1.65;;;3.20;99.90;;;;;;5079985;28;20032;-65
2024/02/26 03:57:55;;;;;;;3.60;1.83;;;3.20;99.90;;;;;;5064263;28;20028;-68
2024/02/26 04:00:21;;;;;;;4.45;2.03;;;3.20;99.90;;;;;;5082742;28;20430;-67
2024/02/26 04:02:47;;;;;;;3.83;1.95;;;3.20;99.90;;;;;;5077984;28;20036;-69
2024/02/26 04:05:13;;;;;;;2.53;1.70;;;3.20;99.90;;;;;;5080192;28;20024;-68
2024/02/26 04:07:42;;;;;;;3.03;1.90;;;3.20;99.90;;;;;;5084224;28;20121;-66
2024/02/26 04:10:11;;;;;;;6.35;2.40;;;3.20;99.90;;;;;;5080331;28;20489;-66
2024/02/26 04:12:41;;;;;;;3.22;1.83;;;3.20;99.90;;;;;;5081754;28;20047;-68
2024/02/26 04:15:10;;;;;;;3.33;1.88;;;3.20;99.90;;;;;;5078286;28;20045;-68
2024/02/26 04:17:37;;;;;;;3.90;1.85;;;3.20;99.90;;;;;;5078760;28;20073;-68
2024/02/26 04:20:05;;;;;;;5.20;2.05;;;3.30;99.90;;;;;;5079267;28;20043;-67
2024/02/26 04:22:31;;;;;;;;;;;3.30;99.90;;;;;;5080210;28;20040;-70
2024/02/26 04:24:56;;;;;;;3.75;1.70;;;3.30;99.90;;;;;;5068590;28;20419;-66
2024/02/26 04:27:22;;;;;;;4.63;1.83;;;3.40;99.90;;;;;;5076443;28;20032;-68
2024/02/26 04:29:47;;;;;;;3.53;1.73;;;3.40;99.90;;;;;;5081864;28;20039;-66
2024/02/26 04:32:13;;;;;;;7.60;2.15;;;3.40;99.90;;;;;;5067027;28;20040;-69
2024/02/26 04:34:38;;;;;;;2.80;1.70;;;3.40;99.90;;;;;;5079857;28;20051;-69
2024/02/26 04:37:04;;;;;;;3.95;2.05;;;3.40;99.90;;;;;;5079018;28;20020;-68
2024/02/26 04:39:29;;;;;;;5.57;2.30;;;3.50;99.90;;;;;;5071692;28;20164;-68
2024/02/26 04:41:55;;;;;;;6.70;2.70;;;3.50;99.90;;;;;;5078743;28;20047;-66
2024/02/26 04:44:20;;;;;;;16.38;1.85;;;3.50;99.90;;;;;;5084640;28;20040;-67
2024/02/26 04:46:46;;;;;;;3.60;2.10;;;3.60;99.90;;;;;;5077291;28;20056;-67
2024/02/26 04:49:12;;;;;;;11.85;2.25;;;3.60;99.90;;;;;;5082270;28;20032;-68
2024/02/26 04:51:37;;;;;;;2.53;1.98;;;3.60;99.90;;;;;;5082295;28;20454;-67
2024/02/26 04:54:03;;;;;;;5.25;2.15;;;3.70;99.90;;;;;;5079040;28;20043;-65
2024/02/26 04:56:28;;;;;;;4.18;2.13;;;3.70;99.90;;;;;;5079599;28;20024;-66
2024/02/26 04:58:54;;;;;;;3.28;2.10;;;3.70;99.90;;;;;;5077884;28;21001;-70
2024/02/26 05:01:20;;;;;;;5.68;2.33;;;3.80;99.90;;;;;;5078836;28;20027;-66
2024/02/26 05:03:45;;;;;;;7.65;2.42;;;3.80;99.90;;;;;;5080821;28;20028;-68
2024/02/26 05:06:11;;;;;;;4.85;2.20;;;3.80;99.90;;;;;;5086403;28;20043;-70
2024/02/26 05:08:38;;;;;;;7.30;2.80;;;3.80;99.90;;;;;;5082695;28;20032;-65
2024/02/26 05:11:04;;;;;;;3.47;2.13;;;3.80;99.90;;;;;;5084586;28;20071;-70
2024/02/26 05:13:30;;;;;;;4.75;2.30;;;3.90;99.90;;;;;;5070689;28;20055;-67
2024/02/26 05:15:55;;;;;;;3.05;1.77;;;3.90;99.90;;;;;;5088690;28;20157;-66
2024/02/26 05:18:22;;;;;;;3.47;2.08;;;3.90;99.90;;;;;;5085341;28;20035;-70
2024/02/26 05:20:47;;;;;;;3.60;2.33;;;3.90;99.90;;;;;;5079045;28;20028;-67
2024/02/26 05:23:13;;;;;;;4.43;2.28;;;4.00;99.90;;;;;;5081688;28;20036;-66
2024/02/26 05:25:39;;;;;;;3.15;1.80;;;4.00;99.90;;;;;;5082726;28;20639;-66
2024/02/26 05:28:04;;;;;;;3.83;1.80;;;3.90;99.90;;;;;;5082204;28;20400;-68
2024/02/26 05:30:30;;;;;;;2.83;1.77;;;3.90;99.90;;;;;;5086202;28;20039;-66
2024/02/26 05:32:56;;;;;;;3.33;1.85;;;4.00;99.90;;;;;;5069533;28;20512;-68
2024/02/26 05:35:22;;;;;;;6.95;2.65;;;4.00;99.90;;;;;;5086726;28;20162;-66
2024/02/26 05:37:47;;;;;;;3.58;2.30;;;4.00;99.90;;;;;;5086004;28;20126;-69
2024/02/26 05:40:13;;;;;;;3.55;2.05;;;4.00;99.90;;;;;;5080543;28;20035;-69
2024/02/26 05:42:39;;;;;;;4.65;2.15;;;4.00;99.90;;;;;;5086522;28;20028;-66
2024/02/26 05:45:06;;;;;;;3.13;1.90;;;4.10;99.90;;;;;;5079776;28;20118;-67
2024/02/26 05:47:34;;;;;;;3.60;2.20;;;4.10;99.90;;;;;;5080385;28;20028;-67
2024/02/26 05:50:00;;;;;;;3.97;2.50;;;4.10;99.90;;;;;;5076994;28;20032;-67
2024/02/26 05:52:27;;;;;;;5.85;1.90;;;4.10;99.90;;;;;;5085581;28;20025;-69
2024/02/26 05:54:54;;;;;;;3.90;2.07;;;4.10;99.90;;;;;;5084217;28;20103;-66
2024/02/26 05:57:19;;;;;;;3.28;2.13;;;4.10;99.90;;;;;;5078878;28;20043;-66
2024/02/26 05:59:45;;;;;;;2.95;1.80;;;4.20;99.90;;;;;;5067596;28;20040;-68
2024/02/26 06:02:10;;;;;;;3.42;2.10;;;4.20;99.90;;;;;;5083776;28;20029;-68
2024/02/26 06:04:36;;;;;;;3.60;1.65;;;4.20;99.90;;;;;;5082940;28;20039;-69
2024/02/26 06:07:02;;;;;;;3.63;1.88;;;4.20;99.90;;;;;;5085207;28;20031;-67
2024/02/26 06:09:28;;;;;;;3.63;1.90;;;4.30;99.90;;;;;;5066383;28;20033;-67
2024/02/26 06:11:53;;;;;;;3.28;1.92;;;4.30;99.90;;;;;;5083459;28;20028;-68
2024/02/26 06:14:20;;;;;;;4.22;2.42;;;4.30;99.90;;;;;;5083239;28;20484;-67
2024/02/26 06:16:46;;;;;;;5.43;2.13;;;4.30;99.90;;;;;;5072018;28;20932;-67
2024/02/26 06:19:11;;;;;;;3.80;2.17;;;4.30;99.90;;;;;;5081905;28;20031;-68
2024/02/26 06:21:37;;;;;;;4.50;2.28;;;4.40;99.90;;;;;;5079035;28;20032;-69
2024/02/26 06:24:03;;;;;;;3.95;2.53;;;4.40;99.90;;;;;;5084425;28;20065;-66
2024/02/26 06:26:29;;;;;;;5.03;2.55;;;4.40;99.90;;;;;;5062271;28;20040;-69
2024/02/26 06:28:55;;;;;;;4.18;2.55;;;4.40;99.90;;;;;;5077057;28;20041;-68
2024/02/26 06:31:22;;;;;;;4.70;2.42;;;4.40;99.90;;;;;;5056439;28;20392;-67
2024/02/26 06:33:48;;;;;;;4.65;2.17;;;4.50;99.90;;;;;;5081043;28;20036;-69
2024/02/26 06:36:15;;;;;;;5.90;2.88;;;4.50;99.90;;;;;;5082513;28;20044;-67
2024/02/26 06:38:41;;;;;;;3.38;2.28;;;4.50;99.90;;;;;;5077173;28;20032;-67
2024/02/26 06:41:06;;;;;;;4.10;2.45;;;4.50;99.90;;;;;;5073958;28;20552;-68
2024/02/26 06:43:32;;;;;;;6.30;2.42;;;4.50;99.90;;;;;;5066700;28;20116;-68
2024/02/26 06:45:58;;;;;;;3.70;2.80;;;4.60;99.90;;;;;;5066660;28;20020;-70
2024/02/26 06:48:24;;;;;;;3.25;2.40;;;4.60;99.90;;;;;;5078296;28;20056;-70
2024/02/26 06:50:50;;;;;;;4.65;2.88;;;4.60;99.90;;;;;;5077736;28;20550;-66
2024/02/26 06:53:16;;;;;;;4.60;2.10;;;4.60;99.90;;;;;;5080170;28;20044;-68
2024/02/26 06:55:42;;;;;;;5.38;2.58;;;4.70;99.90;;;;;;5084587;28;20032;-67
2024/02/26 06:58:08;;;;;;;4.80;2.75;;;4.70;99.90;;;;;;5067859;28;20059;-66
2024/02/26 07:00:35;;;;;;;5.45;2.28;;;4.70;99.90;;;;;;5075543;28;20035;-67
2024/02/26 07:03:00;;;;;;;4.68;2.70;;;4.70;99.90;;;;;;5076854;28;20048;-67
2024/02/26 07:05:27;;;;;;;6.03;3.22;;;4.80;99.90;;;;;;5077823;28;20039;-66
2024/02/26 07:07:53;;;;;;;5.72;3.20;;;4.80;99.90;;;;;;5066794;28;20032;-68
2024/02/26 07:10:18;;;;;;;6.05;3.90;;;4.80;99.90;;;;;;5073592;28;20625;-67
2024/02/26 07:12:44;;;;;;;5.60;3.33;;;4.80;99.90;;;;;;5075437;28;20032;-66
2024/02/26 07:15:10;;;;;;;9.55;3.50;;;4.90;99.90;;;;;;5082918;28;20045;-65
2024/02/26 07:17:36;;;;;;;5.97;3.40;;;4.90;99.90;;;;;;5079296;28;20492;-67
2024/02/26 07:20:04;;;;;;;5.90;3.08;;;4.90;99.90;;;;;;5073659;28;20048;-68
2024/02/26 07:22:30;;;;;;;8.40;3.45;;;4.90;99.90;;;;;;5065602;28;20568;-66
2024/02/26 07:24:55;;;;;;;5.50;3.47;;;5.00;99.90;;;;;;5078134;28;20124;-66
2024/02/26 07:27:21;;;;;;;5.57;3.25;;;5.00;99.90;;;;;;5081641;28;20447;-66
2024/02/26 07:29:47;;;;;;;5.53;3.38;;;5.00;99.90;;;;;;5081462;28;20038;-66
2024/02/26 07:32:12;;;;;;;4.93;2.88;;;5.10;99.90;;;;;;5076764;28;20048;-67
2024/02/26 07:34:41;;;;;;;5.75;3.35;;;5.10;99.90;;;;;;5080164;28;20040;-68
2024/02/26 07:37:08;;;;;;;9.13;4.05;;;5.10;99.90;;;;;;5082734;28;20443;-66
2024/02/26 07:39:33;;;;;;;6.28;3.10;;;5.10;99.90;;;;;;5067500;28;20058;-66
2024/02/26 07:41:59;;;;;;;6.65;3.63;;;5.10;99.90;;;;;;5062635;28;20608;-67
2024/02/26 07:44:25;;;;;;;5.60;3.55;;;5.20;99.90;;;;;;5079963;28;20032;-70
2024/02/26 07:46:50;;;;;;;5.85;3.45;;;5.20;99.90;;;;;;5068799;28;20044;-68
2024/02/26 07:49:16;;;;;;;6.13;3.20;;;5.20;99.90;;;;;;5078875;28;20642;-68
2024/02/26 07:51:41;;;;;;;6.50;4.05;;;5.30;99.90;;;;;;5080167;28;20070;-66
2024/02/26 07:54:07;;;;;;;7.78;3.80;;;5.30;99.90;;;;;;5077636;28;20532;-68
2024/02/26 07:56:33;;;;;;;6.65;3.67;;;5.40;99.90;;;;;;5079438;28;20028;-66
2024/02/26 07:58:58;;;;;;;8.57;3.45;;;5.40;99.90;;;;;;5078992;28;20267;-65
2024/02/26 08:01:25;;;;;;;6.95;3.50;;;5.40;99.90;;;;;;5080688;28;20040;-67
2024/02/26 08:03:51;;;;;;;6.50;3.60;;;5.50;99.90;;;;;;5080272;28;20024;-67
2024/02/26 08:06:17;;;;;;;6.15;3.47;;;5.60;99.90;;;;;;5076937;28;20277;-67
2024/02/26 08:08:43;;;;;;;6.13;3.35;;;5.60;99.90;;;;;;5079576;28;20396;-67
2024/02/26 08:11:09;;;;;;;6.68;3.08;;;5.60;99.90;;;;;;5081409;28;20135;-67
2024/02/26 08:13:35;;;;;;;7.22;2.83;;;5.60;99.90;;;;;;5064637;28;20467;-65
2024/02/26 08:16:01;;;;;;;3.60;2.58;;;5.70;99.90;;;;;;5084823;28;20046;-67
2024/02/26 08:18:27;;;;;;;4.28;2.90;;;5.70;99.90;;;;;;5080704;28;20033;-70
2024/02/26 08:20:52;;;;;;;5.47;2.72;;;5.70;99.90;;;;;;5074411;28;20118;-66
2024/02/26 08:23:18;;;;;;;4.03;2.60;;;5.80;99.90;;;;;;5082725;28;20036;-67
2024/02/26 08:25:43;;;;;;;6.05;2.67;;;5.80;99.90;;;;;;5078333;28;20032;-66
2024/02/26 08:28:13;;;;;;;3.13;2.17;;;5.80;99.90;;;;;;5080339;28;20444;-70
2024/02/26 08:30:38;;;;;;;3.95;2.45;;;5.90;99.90;;;;;;5073840;28;20062;-67
2024/02/26 08:33:04;;;;;;;3.13;1.90;;;6.00;99.90;;;;;;5080471;28;20576;-68
2024/02/26 08:35:30;;;;;;;5.15;2.33;;;6.00;99.90;;;;;;5082286;28;20035;-66
2024/02/26 08:37:55;;;;;;;4.35;1.95;;;6.10;99.90;;;;;;5077536;28;20104;-67
2024/02/26 08:40:21;;;;;;;4.30;2.22;;;6.10;99.90;;;;;;5079672;28;20047;-68
2024/02/26 08:42:47;;;;;;;3.40;2.00;;;6.10;99.90;;;;;;5080777;28;20039;-66
2024/02/26 08:45:12;;;;;;;4.72;2.17;;;6.20;99.90;;;;;;5079234;28;20035;-68
2024/02/26 08:47:38;;;;;;;7.18;2.33;;;6.20;99.90;;;;;;5072876;28;20117;-69
2024/02/26 08:50:05;;;;;;;6.03;3.40;;;6.30;99.90;;;;;;5078617;28;20519;-67
2024/02/26 08:52:31;;;;;;;3.30;2.17;;;6.30;99.90;;;;;;5074527;28;20438;-67
2024/02/26 08:54:57;;;;;;;3.80;2.10;;;6.40;99.90;;;;;;5058545;28;20024;-66
2024/02/26 08:57:23;;;;;;;5.32;2.00;;;6.40;99.90;;;;;;5077280;28;20063;-66
2024/02/26 08:59:49;;;;;;;3.17;1.98;;;6.50;99.90;;;;;;5078735;28;20029;-68
2024/02/26 09:02:14;;;;;;;3.50;2.20;;;6.50;99.90;;;;;;5068786;28;20035;-65
2024/02/26 09:04:40;;;;;;;4.88;2.20;;;6.60;99.90;;;;;;5081173;28;20172;-67
2024/02/26 09:07:06;;;;;;;1.70;1.40;;;6.60;99.90;;;;;;5080849;28;20108;-67
2024/02/26 09:09:31;;;;;;;2.03;1.40;;;6.70;99.90;;;;;;5077444;28;20035;-68
2024/02/26 09:11:57;;;;;;;2.17;1.60;;;6.70;99.90;;;;;;5075607;28;20024;-65
2024/02/26 09:14:23;;;;;;;3.05;1.80;;;6.70;99.90;;;;;;5076660;28;20090;-67
2024/02/26 09:16:48;;;;;;;4.68;1.80;;;6.80;99.90;;;;;;5081965;28;20044;-65
2024/02/26 09:19:15;;;;;;;4.30;1.60;;;6.80;99.90;;;;;;5073876;28;20032;-66
2024/02/26 09:21:44;;;;;;;3.53;1.80;;;6.90;99.90;;;;;;5054862;28;20793;-67
2024/02/26 09:24:11;;;;;;;2.90;1.58;;;6.90;99.90;;;;;;5077947;28;20027;-66
2024/02/26 09:26:37;;;;;;;7.00;3.42;;;6.90;99.90;;;;;;5078599;28;20126;-66
2024/02/26 09:29:03;;;;;;;3.22;1.60;;;7.00;99.90;;;;;;5063769;28;20107;-68
2024/02/26 09:31:29;;;;;;;2.58;1.55;;;7.00;99.90;;;;;;5076839;28;20296;-66
2024/02/26 09:33:55;;;;;;;3.25;1.88;;;7.10;99.90;;;;;;5079929;28;20548;-66
2024/02/26 09:36:21;;;;;;;2.13;1.52;;;6.90;99.90;;;;;;5076764;28;20045;-66
2024/02/26 09:38:47;;;;;;;3.40;1.70;;;7.20;99.90;;;;;;5079655;28;20036;-66
2024/02/26 09:41:16;;;;;;;3.40;1.73;;;7.20;99.90;;;;;;5074632;28;20032;-66
2024/02/26 09:43:45;;;;;;;4.43;1.83;;;7.20;99.90;;;;;;5061825;28;20041;-66
2024/02/26 09:46:11;;;;;;;3.33;1.55;;;7.30;99.90;;;;;;5063314;28;20028;-67
2024/02/26 09:48:37;;;;;;;4.22;1.90;;;7.30;99.90;;;;;;5076473;28;20532;-65
2024/02/26 09:51:04;;;;;;;3.92;1.45;;;7.30;99.90;;;;;;5085669;28;20686;-67
2024/02/26 09:53:31;;;;;;;6.82;2.13;;;7.30;99.90;;;;;;5080737;28;20061;-66
2024/02/26 09:55:58;;;;;;;6.45;1.75;;;7.40;99.90;;;;;;5084679;28;20056;-65
2024/02/26 09:58:26;;;;;;;6.80;2.83;;;7.40;99.90;;;;;;5082700;28;20019;-69
2024/02/26 10:00:58;;;;;;;3.55;1.75;;;7.50;99.90;;;;;;5083956;28;20038;-66
2024/02/26 10:03:28;;;;;;;4.78;2.03;;;7.50;99.90;;;;;;5083204;28;20029;-65
2024/02/26 10:05:55;;;;;;;5.30;1.83;;;7.60;99.90;;;;;;5081588;28;20063;-65
2024/02/26 10:08:22;;;;;;;6.47;2.05;;;7.50;99.90;;;;;;5080259;28;20047;-67
2024/02/26 10:10:48;;;;;;;5.03;2.15;;;7.70;99.90;;;;;;5084106;28;20039;-65
2024/02/26 10:13:14;;;;;;;5.88;2.40;;;7.70;99.90;;;;;;5084463;28;20047;-64
2024/02/26 10:15:40;;;;;;;4.45;2.15;;;7.70;99.90;;;;;;5067138;28;20032;-65
2024/02/26 10:18:06;;;;;;;2.00;1.50;;;7.70;99.90;;;;;;5081640;28;20033;-64
2024/02/26 10:20:32;;;;;;;3.63;1.73;;;7.80;99.90;;;;;;5077054;28;20043;-66
2024/02/26 10:22:58;;;;;;;6.78;2.38;;;7.80;99.90;;;;;;5081200;28;20024;-64
2024/02/26 10:25:23;;;;;;;5.00;2.30;;;7.90;99.90;;;;;;5067070;28;20044;-66
2024/02/26 10:27:49;;;;;;;5.88;2.53;;;7.90;99.90;;;;;;5081632;28;20059;-68
2024/02/26 10:30:19;;;;;;;3.58;2.15;;;7.90;99.90;;;;;;5061027;28;20048;-66
2024/02/26 10:32:49;;;;;;;4.75;2.28;;;7.90;99.90;;;;;;5079823;28;20024;-67
2024/02/26 10:35:16;;;;;;;3.80;1.80;;;8.00;99.90;;;;;;5076678;28;20074;-68
2024/02/26 10:37:42;;;;;;;5.63;2.15;;;8.00;99.90;;;;;;5078318;28;20580;-65
2024/02/26 10:40:11;;;;;;;6.00;2.03;;;8.00;99.90;;;;;;5079285;28;20070;-64
2024/02/26 10:42:38;;;;;;;3.67;2.08;;;8.10;99.90;;;;;;5082291;28;20040;-64
2024/02/26 10:45:05;;;;;;;4.32;2.47;;;8.10;99.90;;;;;;5076483;28;20020;-66
2024/02/26 10:47:33;;;;;;;3.58;1.90;;;8.20;99.90;;;;;;5081175;28;20349;-67
2024/02/26 10:49:59;;;;;;;5.22;2.33;;;8.20;99.90;;;;;;5079811;28;20119;-65
2024/02/26 10:52:26;;;;;;;3.00;1.98;;;8.20;99.90;;;;;;5080284;28;20214;-69
2024/02/26 10:54:56;;;;;;;3.45;2.35;;;8.20;99.90;;;;;;5075754;28;20071;-65
2024/02/26 10:57:22;;;;;;;6.70;2.53;;;8.30;99.90;;;;;;5079267;28;20051;-67
2024/02/26 10:59:49;;;;;;;6.47;2.20;;;8.30;99.90;;;;;;5075771;28;20111;-65
2024/02/26 11:02:15;;;;;;;3.20;2.00;;;8.30;99.90;;;;;;5076099;28;20029;-67
2024/02/26 11:04:41;;;;;;;5.72;2.88;;;8.30;99.90;;;;;;5079054;28;20119;-69
2024/02/26 11:07:09;;;;;;;4.53;2.03;;;8.40;99.90;;;;;;5075987;28;20107;-67
2024/02/26 11:09:35;;;;;;;5.60;2.35;;;8.40;99.90;;;;;;5078404;28;20036;-65
2024/02/26 11:12:02;;;;;;;5.30;2.08;;;8.40;99.90;;;;;;5083954;28;20067;-67
2024/02/26 11:14:29;;;;;;;3.35;2.10;;;8.50;99.90;;;;;;5076613;28;20040;-64
2024/02/26 11:16:58;;;;;;;2.88;1.63;;;8.50;99.90;;;;;;5076474;28;20094;-67
2024/02/26 11:19:24;;;;;;;6.53;1.85;;;8.60;99.90;;;;;;5077407;28;20032;-67
2024/02/26 11:21:50;;;;;;;4.05;1.63;;;8.60;99.90;;;;;;5082030;28;20493;-66
2024/02/26 11:24:19;;;;;;;2.63;1.70;;;8.60;99.90;;;;;;5082006;28;20066;-66
2024/02/26 11:26:47;;;;;;;5.35;1.90;;;8.60;99.90;;;;;;5060338;28;20028;-66
2024/02/26 11:29:19;;;;;;;5.85;2.08;;;8.70;99.90;;;;;;5079521;28;20027;-66
2024/02/26 11:31:44;;;;;;;7.10;2.33;;;8.80;99.90;;;;;;5076257;28;20635;-65
2024/02/26 11:34:11;;;;;;;7.28;2.60;;;8.90;99.90;;;;;;5083095;28;20024;-65
2024/02/26 11:36:37;;;;;;;4.90;2.60;;;8.90;99.90;;;;;;5084610;28;20063;-65
2024/02/26 11:39:04;;;;;;;4.25;2.42;;;8.90;99.90;;;;;;5080493;28;20109;-66
2024/02/26 11:41:31;;;;;;;4.80;2.60;;;8.90;99.90;;;;;;5080275;28;20024;-67
2024/02/26 11:44:04;;;;;;;4.50;2.30;;;9.00;99.90;;;;;;5074443;28;20041;-65
2024/02/26 11:46:31;;;;;;;7.80;2.70;;;9.10;99.90;;;;;;5077669;28;20032;-67
2024/02/26 11:49:02;;;;;;;9.15;2.42;;;9.10;99.90;;;;;;5076911;28;20106;-67
2024/02/26 11:51:33;;;;;;;2.90;1.90;;;9.20;99.90;;;;;;5059220;28;20043;-65
2024/02/26 11:53:58;;;;;;;3.05;2.10;;;9.30;99.90;;;;;;5056792;28;20397;-65
2024/02/26 11:56:29;;;;;;;3.58;2.28;;;9.30;99.90;;;;;;5081360;28;20039;-65
2024/02/26 11:59:09;;;;;;;3.03;1.83;;;9.30;99.90;;;;;;5075227;28;20131;-67
2024/02/26 12:01:40;;;;;;;3.38;1.80;;;9.40;99.90;;;;;;5077754;28;20037;-66
2024/02/26 12:04:28;;;;;;;4.53;1.90;;;9.50;99.90;;;;;;5079437;28;20630;-67
2024/02/26 12:07:00;;;;;;;4.75;2.05;;;9.40;99.90;;;;;;5074070;28;20047;-66
2024/02/26 12:09:40;;;;;;;2.63;2.03;;;9.50;99.90;;;;;;5080325;28;20488;-67
2024/02/26 12:12:08;;;;;;;3.08;2.17;;;9.70;99.90;;;;;;5077973;28;20400;-66
2024/02/26 12:14:38;;;;;;;4.45;2.08;;;9.70;99.90;;;;;;5058467;28;20044;-66
2024/02/26 12:17:07;;;;;;;3.60;1.75;;;9.70;99.90;;;;;;5074630;28;20037;-66
2024/02/26 12:19:34;;;;;;;4.75;2.53;;;9.90;99.90;;;;;;5080696;28;20040;-66
2024/02/26 12:22:00;;;;;;;6.28;2.47;;;9.90;99.90;;;;;;5062881;28;20048;-67
2024/02/26 12:24:25;;;;;;;5.03;2.25;;;9.90;99.90;;;;;;5082540;28;20032;-66
2024/02/26 12:26:51;;;;;;;3.28;2.40;;;9.90;99.90;;;;;;5079064;28;20059;-67
2024/02/26 12:29:16;;;;;;;4.55;2.83;;;10.00;99.90;;;;;;5064578;28;20051;-66
2024/02/26 12:31:43;;;;;;;3.95;2.83;;;10.10;99.90;;;;;;5077823;28;20032;-65
2024/02/26 12:34:09;;;;;;;7.38;2.65;;;10.30;99.90;;;;;;5079856;28;20094;-67
2024/02/26 12:36:36;;;;;;;4.13;2.35;;;10.30;99.90;;;;;;5062003;28;20564;-65
2024/02/26 12:39:05;;;;;;;4.75;2.30;;;10.40;99.90;;;;;;5074354;28;20163;-68
2024/02/26 12:41:32;;;;;;;3.70;2.30;;;10.50;99.90;;;;;;5076565;28;20036;-66
2024/02/26 12:43:58;;;;;;;8.65;2.78;;;10.60;99.90;;;;;;5077549;28;20025;-66
2024/02/26 12:46:24;;;;;;;6.82;2.60;;;10.70;99.70;;;;;;5076862;28;20025;-70
2024/02/26 12:48:49;;;;;;;7.47;2.60;;;10.70;99.60;;;;;;5077755;28;20089;-67
2024/02/26 12:51:17;;;;;;;5.68;2.95;;;10.70;99.30;;;;;;5055601;28;20090;-67
2024/02/26 12:53:44;;;;;;;3.03;2.20;;;10.80;98.80;;;;;;5076984;28;20048;-67